Terminal Aerodrome Forecast
Issued by NWS Northern Indiana

Home | Current Version | Previous Version | Text Only | Print | Product List | Glossary Off
Versions: 1 2 3 4 5 6 7 8 9 10 11 12 13 14 15

000
FTUS43 KIWX 250500 RRA
TAFFWA
TAF
KFWA 250552Z 2506/2606 18012KT P6SM BKN150 WS020/21045KT
     FM251100 20016G23KT P6SM BKN040
     FM251500 21024G32KT P6SM BKN040=

USA.gov is the U.S. government's official web portal to all federal, state and local government web resources and services.